sensor_id;sensor_type;location;lat;lon;timestamp;pressure;altitude;pressure_sealevel;temperature;humidity
68965;BME280;56017;48.680;8.998;2023-02-15T07:14:06;97890;;;-1.5;81
68965;BME280;56017;48.680;8.998;2023-02-15T07:16:37;97890;;;-1.4;81.5
68965;BME280;56017;48.680;8.998;2023-02-15T07:19:08;97890;;;-1.2;81
68965;BME280;56017;48.680;8.998;2023-02-15T07:21:57;97890;;;-1.1;81
68965;BME280;56017;48.680;8.998;2023-02-15T07:24:18;97890;;;-1;81
68965;BME280;56017;48.680;8.998;2023-02-15T07:26:39;97880;;;-0.8;81
68965;BME280;56017;48.680;8.998;2023-02-15T07:31:41;97880;;;-0.5;81
68965;BME280;56017;48.680;8.998;2023-02-15T07:34:11;97880;;;-0.2;80.5
68965;BME280;56017;48.680;8.998;2023-02-15T07:36:42;97880;;;0;80
68965;BME280;56017;48.680;8.998;2023-02-15T07:39:13;97880;;;0;79.5
68965;BME280;56017;48.680;8.998;2023-02-15T07:41:43;97880;;;0;80
68965;BME280;56017;48.680;8.998;2023-02-15T07:44:23;97880;;;-0.1;80.5
68965;BME280;56017;48.680;8.998;2023-02-15T07:46:44;97870;;;0;80.5
68965;BME280;56017;48.680;8.998;2023-02-15T07:49:15;97870;;;0.2;80.5
68965;BME280;56017;48.680;8.998;2023-02-15T07:51:46;97870;;;0.4;80.5
68965;BME280;56017;48.680;8.998;2023-02-15T07:54:17;97880;;;0.7;79.5
68965;BME280;56017;48.680;8.998;2023-02-15T07:56:47;97880;;;0.9;79.5
68965;BME280;56017;48.680;8.998;2023-02-15T07:59:18;97870;;;1;79.5
68965;BME280;56017;48.680;8.998;2023-02-15T08:01:48;97880;;;1.1;80
68965;BME280;56017;48.680;8.998;2023-02-15T08:04:28;97880;;;1.1;80
68965;BME280;56017;48.680;8.998;2023-02-15T08:06:52;97880;;;1.2;80.5
68965;BME280;56017;48.680;8.998;2023-02-15T08:09:20;97880;;;1.3;80.5
68965;BME280;56017;48.680;8.998;2023-02-15T08:11:51;97880;;;1.5;80.5
68965;BME280;56017;48.680;8.998;2023-02-15T08:14:22;97880;;;1.8;80
68965;BME280;56017;48.680;8.998;2023-02-15T08:16:53;97880;;;2;79.5
68965;BME280;56017;48.680;8.998;2023-02-15T08:19:24;97870;;;2.2;79.5
68965;BME280;56017;48.680;8.998;2023-02-15T08:21:55;97870;;;2.3;79.5
68965;BME280;56017;48.680;8.998;2023-02-15T08:24:34;97870;;;2.5;79
68965;BME280;56017;48.680;8.998;2023-02-15T08:26:55;97870;;;2.6;79
68965;BME280;56017;48.680;8.998;2023-02-15T08:29:26;97870;;;2.6;79
68965;BME280;56017;48.680;8.998;2023-02-15T08:31:57;97870;;;2.7;79
68965;BME280;56017;48.680;8.998;2023-02-15T08:34:26;97870;;;2.7;79.5
68965;BME280;56017;48.680;8.998;2023-02-15T08:36:57;97870;;;2.7;80
68965;BME280;56017;48.680;8.998;2023-02-15T08:39:37;97870;;;2.8;80
68965;BME280;56017;48.680;8.998;2023-02-15T08:41:58;97870;;;2.9;80
68965;BME280;56017;48.680;8.998;2023-02-15T08:44:38;97870;;;3;80
68965;BME280;56017;48.680;8.998;2023-02-15T08:47:00;97870;;;3.2;80
68965;BME280;56017;48.680;8.998;2023-02-15T08:49:30;97860;;;3.4;79.5
68965;BME280;56017;48.680;8.998;2023-02-15T08:52:10;97860;;;3.5;79.5
68965;BME280;56017;48.680;8.998;2023-02-15T08:54:31;97860;;;3.7;79
68965;BME280;56017;48.680;8.998;2023-02-15T08:57:02;97860;;;3.8;79
68965;BME280;56017;48.680;8.998;2023-02-15T08:59:32;97860;;;3.9;79.5
68965;BME280;56017;48.680;8.998;2023-02-15T09:02:03;97860;;;4;79.5
68965;BME280;56017;48.680;8.998;2023-02-15T09:04:34;97860;;;4.1;79
68965;BME280;56017;48.680;8.998;2023-02-15T09:07:04;97860;;;4.1;79.5
68965;BME280;56017;48.680;8.998;2023-02-15T09:09:35;97850;;;4.2;79.5
68965;BME280;56017;48.680;8.998;2023-02-15T09:12:05;97850;;;4.3;79.5
68965;BME280;56017;48.680;8.998;2023-02-15T09:14:36;97850;;;4.4;79.5
68965;BME280;56017;48.680;8.998;2023-02-15T09:17:07;97850;;;4.6;79
68965;BME280;56017;48.680;8.998;2023-02-15T09:19:38;97850;;;4.8;79
68965;BME280;56017;48.680;8.998;2023-02-15T09:22:08;97840;;;4.9;79
68965;BME280;56017;48.680;8.998;2023-02-15T09:24:39;97840;;;5;79
68965;BME280;56017;48.680;8.998;2023-02-15T09:27:09;97840;;;5;79.5
68965;BME280;56017;48.680;8.998;2023-02-15T09:29:40;97830;;;5.2;79.5
68965;BME280;56017;48.680;8.998;2023-02-15T09:32:20;97830;;;5.4;80
68965;BME280;56017;48.680;8.998;2023-02-15T09:34:42;97820;;;5.5;80
68965;BME280;56017;48.680;8.998;2023-02-15T09:37:12;97820;;;5.7;80
68965;BME280;56017;48.680;8.998;2023-02-15T09:39:43;97810;;;5.9;80
68965;BME280;56017;48.680;8.998;2023-02-15T09:42:33;97810;;;6.2;80
68965;BME280;56017;48.680;8.998;2023-02-15T09:45:02;97810;;;6.6;80
68965;BME280;56017;48.680;8.998;2023-02-15T09:47:19;97810;;;7.6;79.5
68965;BME280;56017;48.680;8.998;2023-02-15T09:49:53;97800;;;9.5;78
68965;BME280;56017;48.680;8.998;2023-02-15T09:52:20;97800;;;11.2;76
68965;BME280;56017;48.680;8.998;2023-02-15T09:55:15;97800;;;12.2;75
68965;BME280;56017;48.680;8.998;2023-02-15T09:57:21;97790;;;12.7;75
68965;BME280;56017;48.680;8.998;2023-02-15T10:02:21;97800;;;14.1;72.5
68965;BME280;56017;48.680;8.998;2023-02-15T10:04:54;97790;;;14.6;72
68965;BME280;56017;48.680;8.998;2023-02-15T10:07:39;97790;;;15;70
68965;BME280;56017;48.680;8.998;2023-02-15T10:09:54;97790;;;14.7;70.5
68965;BME280;56017;48.680;8.998;2023-02-15T10:12:27;97790;;;14.2;72.5
68965;BME280;56017;48.680;8.998;2023-02-15T10:14:56;97790;;;13.6;75
68965;BME280;56017;48.680;8.998;2023-02-15T10:17:58;97800;;;13.4;76.5
68965;BME280;56017;48.680;8.998;2023-02-15T10:19:57;97790;;;13.8;75.5
68965;BME280;56017;48.680;8.998;2023-02-15T10:25:00;97780;;;14.3;74
68965;BME280;56017;48.680;8.998;2023-02-15T10:27:26;97790;;;14.3;75
68965;BME280;56017;48.680;8.998;2023-02-15T10:30:02;97780;;;14.3;74.5
68965;BME280;56017;48.680;8.998;2023-02-15T10:32:26;97780;;;14.3;75
68965;BME280;56017;48.680;8.998;2023-02-15T10:37:39;97770;;;14.2;74.5
68965;BME280;56017;48.680;8.998;2023-02-15T10:40:05;97770;;;14;74.5
68965;BME280;56017;48.680;8.998;2023-02-15T10:42:43;97770;;;13.9;75.5
68965;BME280;56017;48.680;8.998;2023-02-15T10:45:33;97770;;;13.8;75.5
68965;BME280;56017;48.680;8.998;2023-02-15T10:47:33;97770;;;13.5;77
68965;BME280;56017;48.680;8.998;2023-02-15T10:50:08;97760;;;13.3;78
68965;BME280;56017;48.680;8.998;2023-02-15T10:53:05;97750;;;13.5;78.5
68965;BME280;56017;48.680;8.998;2023-02-15T10:55:06;97750;;;14.1;78
68965;BME280;56017;48.680;8.998;2023-02-15T10:57:53;97750;;;14.3;76.5
68965;BME280;56017;48.680;8.998;2023-02-15T11:00:22;97760;;;13.9;78.5
68965;BME280;56017;48.680;8.998;2023-02-15T11:06:08;97750;;;14.4;79
68965;BME280;56017;48.680;8.998;2023-02-15T11:07:37;97750;;;15.1;76
68965;BME280;56017;48.680;8.998;2023-02-15T11:10:19;97750;;;15.5;74.5
68965;BME280;56017;48.680;8.998;2023-02-15T11:12:36;97740;;;14.9;75.5
68965;BME280;56017;48.680;8.998;2023-02-15T11:15:39;97740;;;14.7;76.5
68965;BME280;56017;48.680;8.998;2023-02-15T11:17:39;97740;;;14.4;77.5
68965;BME280;56017;48.680;8.998;2023-02-15T11:20:15;97730;;;14.1;79.5
68965;BME280;56017;48.680;8.998;2023-02-15T11:22:58;97730;;;14.1;80
68965;BME280;56017;48.680;8.998;2023-02-15T11:25:30;97720;;;14;80.5
68965;BME280;56017;48.680;8.998;2023-02-15T11:27:41;97730;;;13.9;80.5
68965;BME280;56017;48.680;8.998;2023-02-15T11:30:19;97720;;;14.1;80.5
68965;BME280;56017;48.680;8.998;2023-02-15T11:32:43;97720;;;14;81
68965;BME280;56017;48.680;8.998;2023-02-15T11:37:47;97710;;;14.9;79
68965;BME280;56017;48.680;8.998;2023-02-15T11:40:19;97710;;;16.1;75
68965;BME280;56017;48.680;8.998;2023-02-15T11:42:45;97710;;;16.3;74.5
68965;BME280;56017;48.680;8.998;2023-02-15T11:45:20;97710;;;15.9;76
68965;BME280;56017;48.680;8.998;2023-02-15T11:47:45;97710;;;15.6;77.5
68965;BME280;56017;48.680;8.998;2023-02-15T11:50:34;97710;;;15.6;77.5
68965;BME280;56017;48.680;8.998;2023-02-15T11:52:48;97710;;;15.2;78.5
68965;BME280;56017;48.680;8.998;2023-02-15T11:55:19;97710;;;14.9;79.5
68965;BME280;56017;48.680;8.998;2023-02-15T11:57:50;97710;;;15;80
68965;BME280;56017;48.680;8.998;2023-02-15T12:00:25;97700;;;14.9;80.5
68965;BME280;56017;48.680;8.998;2023-02-15T12:02:52;97700;;;15.1;80.5
68965;BME280;56017;48.680;8.998;2023-02-15T12:05:21;97700;;;16.1;80
68965;BME280;56017;48.680;8.998;2023-02-15T12:07:52;97700;;;17.1;78.5
68965;BME280;56017;48.680;8.998;2023-02-15T12:10:29;97690;;;18.1;76.5
68965;BME280;56017;48.680;8.998;2023-02-15T12:13:08;97690;;;18.8;74.5
68965;BME280;56017;48.680;8.998;2023-02-15T12:15:29;97690;;;18.3;75.5
68965;BME280;56017;48.680;8.998;2023-02-15T12:17:53;97690;;;17.3;78
68965;BME280;56017;48.680;8.998;2023-02-15T12:20:27;97690;;;17.3;78
68965;BME280;56017;48.680;8.998;2023-02-15T12:23:04;97690;;;17.6;78.5
68965;BME280;56017;48.680;8.998;2023-02-15T12:25:26;97690;;;17.6;78
68965;BME280;56017;48.680;8.998;2023-02-15T12:27:55;97700;;;17.1;79.5
68965;BME280;56017;48.680;8.998;2023-02-15T12:30:29;97690;;;17.2;79.5
68965;BME280;56017;48.680;8.998;2023-02-15T12:32:58;97690;;;17.1;80
68965;BME280;56017;48.680;8.998;2023-02-15T12:35:29;97690;;;17.1;80.5
68965;BME280;56017;48.680;8.998;2023-02-15T12:38:19;97680;;;19.3;76.5
68965;BME280;56017;48.680;8.998;2023-02-15T12:40:30;97680;;;20.8;73
68965;BME280;56017;48.680;8.998;2023-02-15T12:43:24;97670;;;22.9;70.5
68965;BME280;56017;48.680;8.998;2023-02-15T12:45:31;97670;;;24;68.5
68965;BME280;56017;48.680;8.998;2023-02-15T12:48:17;97660;;;23.9;66.5
68965;BME280;56017;48.680;8.998;2023-02-15T12:50:50;97660;;;24.7;65
68965;BME280;56017;48.680;8.998;2023-02-15T12:53:06;97650;;;24.4;66
68965;BME280;56017;48.680;8.998;2023-02-15T12:55:33;97650;;;24.6;63
68965;BME280;56017;48.680;8.998;2023-02-15T12:58:05;97640;;;24.2;63.5
68965;BME280;56017;48.680;8.998;2023-02-15T13:00:35;97640;;;25;64
68965;BME280;56017;48.680;8.998;2023-02-15T13:03:13;97630;;;26.1;60.5
68965;BME280;56017;48.680;8.998;2023-02-15T13:05:37;97630;;;26;59
68965;BME280;56017;48.680;8.998;2023-02-15T13:08:10;97630;;;25.5;59.5
68965;BME280;56017;48.680;8.998;2023-02-15T13:10:40;97620;;;25.5;61
68965;BME280;56017;48.680;8.998;2023-02-15T13:13:09;97620;;;25.1;62.5
68965;BME280;56017;48.680;8.998;2023-02-15T13:15:40;97620;;;25.3;64
68965;BME280;56017;48.680;8.998;2023-02-15T13:18:11;97610;;;25.9;62
68965;BME280;56017;48.680;8.998;2023-02-15T13:20:39;97610;;;26.4;58.5
68965;BME280;56017;48.680;8.998;2023-02-15T13:23:22;97610;;;25;60
68965;BME280;56017;48.680;8.998;2023-02-15T13:25:44;97610;;;24.3;61.5
68965;BME280;56017;48.680;8.998;2023-02-15T13:28:12;97600;;;24;62.5
68965;BME280;56017;48.680;8.998;2023-02-15T13:30:43;97610;;;22.8;65.5
68965;BME280;56017;48.680;8.998;2023-02-15T13:33:33;97600;;;21.9;69
68965;BME280;56017;48.680;8.998;2023-02-15T13:35:56;97600;;;22.3;69.5
68965;BME280;56017;48.680;8.998;2023-02-15T13:40:46;97600;;;24.7;65.5
68965;BME280;56017;48.680;8.998;2023-02-15T13:43:30;97590;;;25.8;65.5
68965;BME280;56017;48.680;8.998;2023-02-15T13:48:31;97590;;;25.6;66
68965;BME280;56017;48.680;8.998;2023-02-15T13:50:52;97590;;;25.6;68.5
68965;BME280;56017;48.680;8.998;2023-02-15T13:53:32;97580;;;25.8;67.5
68965;BME280;56017;48.680;8.998;2023-02-15T13:55:52;97580;;;25.7;64.5
68965;BME280;56017;48.680;8.998;2023-02-15T14:00:56;97580;;;26.6;64.5
68965;BME280;56017;48.680;8.998;2023-02-15T14:03:39;97570;;;27.7;61.5
68965;BME280;56017;48.680;8.998;2023-02-15T14:08:46;97580;;;27.9;66.5
68965;BME280;56017;48.680;8.998;2023-02-15T14:10:57;97570;;;27.5;65.5
68965;BME280;56017;48.680;8.998;2023-02-15T14:13:37;97570;;;28.3;66
68965;BME280;56017;48.680;8.998;2023-02-15T14:16:10;97570;;;28.4;64
68965;BME280;56017;48.680;8.998;2023-02-15T14:18:39;97570;;;27.5;65
68965;BME280;56017;48.680;8.998;2023-02-15T14:21:59;97570;;;27;68
68965;BME280;56017;48.680;8.998;2023-02-15T14:23:59;97570;;;26.6;70
68965;BME280;56017;48.680;8.998;2023-02-15T14:25:58;97570;;;26.5;68
68965;BME280;56017;48.680;8.998;2023-02-15T14:28:38;97570;;;26.9;65
68965;BME280;56017;48.680;8.998;2023-02-15T14:30:57;97580;;;26.9;67
68965;BME280;56017;48.680;8.998;2023-02-15T14:33:37;97570;;;26.5;69.5
68965;BME280;56017;48.680;8.998;2023-02-15T14:38:46;97570;;;25.9;62.5
68965;BME280;56017;48.680;8.998;2023-02-15T14:41:02;97580;;;24.8;66
68965;BME280;56017;48.680;8.998;2023-02-15T14:43:52;97580;;;24.1;66
68965;BME280;56017;48.680;8.998;2023-02-15T14:48:33;97580;;;21.9;66.5
68965;BME280;56017;48.680;8.998;2023-02-15T14:51:02;97580;;;20.9;68.5
68965;BME280;56017;48.680;8.998;2023-02-15T14:53:33;97590;;;20.5;69.5
68965;BME280;56017;48.680;8.998;2023-02-15T14:58:58;97590;;;20.4;71
68965;BME280;56017;48.680;8.998;2023-02-15T15:01:08;97590;;;20.3;70.5
68965;BME280;56017;48.680;8.998;2023-02-15T15:03:47;97590;;;20;71
68965;BME280;56017;48.680;8.998;2023-02-15T15:08:45;97600;;;19;74.5
68965;BME280;56017;48.680;8.998;2023-02-15T15:11:40;97600;;;18.8;75
68965;BME280;56017;48.680;8.998;2023-02-15T15:13:55;97600;;;18.7;73.5
68965;BME280;56017;48.680;8.998;2023-02-15T15:16:27;97600;;;18.3;74.5
68965;BME280;56017;48.680;8.998;2023-02-15T15:18:48;97600;;;18.3;75
68965;BME280;56017;48.680;8.998;2023-02-15T15:21:09;97600;;;18;75.5
68965;BME280;56017;48.680;8.998;2023-02-15T15:26:30;97600;;;17.6;76.5
68965;BME280;56017;48.680;8.998;2023-02-15T15:28:53;97600;;;18.3;75
68965;BME280;56017;48.680;8.998;2023-02-15T15:31:45;97600;;;19.2;74.5
68965;BME280;56017;48.680;8.998;2023-02-15T15:34:38;97600;;;20.4;72.5
68965;BME280;56017;48.680;8.998;2023-02-15T15:37:23;97600;;;21.1;71
68965;BME280;56017;48.680;8.998;2023-02-15T15:38:57;97590;;;21.9;70
68965;BME280;56017;48.680;8.998;2023-02-15T15:41:27;97590;;;22.8;68.5
68965;BME280;56017;48.680;8.998;2023-02-15T15:44:08;97590;;;23.3;64.5
68965;BME280;56017;48.680;8.998;2023-02-15T15:46:30;97600;;;23.3;65
68965;BME280;56017;48.680;8.998;2023-02-15T15:48:59;97600;;;23.3;64.5
68965;BME280;56017;48.680;8.998;2023-02-15T15:51:18;97600;;;23.5;63.5
68965;BME280;56017;48.680;8.998;2023-02-15T15:54:11;97600;;;23.4;62.5
68965;BME280;56017;48.680;8.998;2023-02-15T15:56:29;97600;;;23;61.5
68965;BME280;56017;48.680;8.998;2023-02-15T15:59:02;97600;;;22.3;61.5
68965;BME280;56017;48.680;8.998;2023-02-15T16:01:24;97600;;;21.3;62.5
68965;BME280;56017;48.680;8.998;2023-02-15T16:04:10;97600;;;20.5;66
68965;BME280;56017;48.680;8.998;2023-02-15T16:06:33;97610;;;19.6;66
68965;BME280;56017;48.680;8.998;2023-02-15T16:08:52;97600;;;17.9;65.5
68965;BME280;56017;48.680;8.998;2023-02-15T16:11:23;97620;;;16.1;67.5
68965;BME280;56017;48.680;8.998;2023-02-15T16:14:03;97620;;;14.9;70
68965;BME280;56017;48.680;8.998;2023-02-15T16:16:33;97620;;;14.1;71.5
68965;BME280;56017;48.680;8.998;2023-02-15T16:19:03;97630;;;13.6;73
68965;BME280;56017;48.680;8.998;2023-02-15T16:21:27;97630;;;13.2;73.5
68965;BME280;56017;48.680;8.998;2023-02-15T16:24:09;97630;;;12.9;73.5
68965;BME280;56017;48.680;8.998;2023-02-15T16:26:39;97640;;;12.6;74
68965;BME280;56017;48.680;8.998;2023-02-15T16:29:12;97640;;;12.4;74
68965;BME280;56017;48.680;8.998;2023-02-15T16:31:27;97640;;;12.2;74.5
68965;BME280;56017;48.680;8.998;2023-02-15T16:34:16;97640;;;12;74.5
68965;BME280;56017;48.680;8.998;2023-02-15T16:36:30;97640;;;11.8;74.5
68965;BME280;56017;48.680;8.998;2023-02-15T16:39:12;97640;;;11.4;75.5
68965;BME280;56017;48.680;8.998;2023-02-15T16:41:30;97650;;;11;75.5
68965;BME280;56017;48.680;8.998;2023-02-15T16:44:16;97660;;;10.7;76
68965;BME280;56017;48.680;8.998;2023-02-15T16:46:33;97660;;;10.4;76
68965;BME280;56017;48.680;8.998;2023-02-15T16:49:19;97650;;;9.9;76.5
68965;BME280;56017;48.680;8.998;2023-02-15T16:51:33;97660;;;9.5;76.5
68965;BME280;56017;48.680;8.998;2023-02-15T16:54:15;97670;;;9.1;77
68965;BME280;56017;48.680;8.998;2023-02-15T16:56:34;97660;;;8.9;77.5
68965;BME280;56017;48.680;8.998;2023-02-15T16:59:19;97670;;;8.8;78
68965;BME280;56017;48.680;8.998;2023-02-15T17:04:26;97670;;;8.3;77.5
68965;BME280;56017;48.680;8.998;2023-02-15T17:06:37;97670;;;8.1;78
68965;BME280;56017;48.680;8.998;2023-02-15T17:09:16;97680;;;7.9;78.5
68965;BME280;56017;48.680;8.998;2023-02-15T17:11:42;97680;;;7.9;78
68965;BME280;56017;48.680;8.998;2023-02-15T17:14:19;97690;;;7.7;78
68965;BME280;56017;48.680;8.998;2023-02-15T17:16:50;97690;;;7.5;78.5
68965;BME280;56017;48.680;8.998;2023-02-15T17:19:21;97690;;;7.4;78.5
68965;BME280;56017;48.680;8.998;2023-02-15T17:21:42;97690;;;7.3;78.5
68965;BME280;56017;48.680;8.998;2023-02-15T17:24:23;97700;;;7.2;78.5
68965;BME280;56017;48.680;8.998;2023-02-15T17:26:42;97700;;;7;78.5
68965;BME280;56017;48.680;8.998;2023-02-15T17:29:24;97700;;;6.8;78.5
68965;BME280;56017;48.680;8.998;2023-02-15T17:31:43;97700;;;6.6;78.5
68965;BME280;56017;48.680;8.998;2023-02-15T17:34:41;97700;;;6.4;79
68965;BME280;56017;48.680;8.998;2023-02-15T17:39:24;97710;;;6.2;79
68965;BME280;56017;48.680;8.998;2023-02-15T17:41:45;97700;;;6.1;79
68965;BME280;56017;48.680;8.998;2023-02-15T17:44:16;97710;;;6;79
68965;BME280;56017;48.680;8.998;2023-02-15T17:46:48;97710;;;5.9;79
68965;BME280;56017;48.680;8.998;2023-02-15T17:49:27;97710;;;5.9;79
68965;BME280;56017;48.680;8.998;2023-02-15T17:51:48;97710;;;5.9;79
68965;BME280;56017;48.680;8.998;2023-02-15T17:54:19;97710;;;6;79
68965;BME280;56017;48.680;8.998;2023-02-15T17:59:19;97710;;;5.8;78.5
68965;BME280;56017;48.680;8.998;2023-02-15T18:01:59;97710;;;5.6;78.5
68965;BME280;56017;48.680;8.998;2023-02-15T18:04:31;97710;;;5.4;79
68965;BME280;56017;48.680;8.998;2023-02-15T18:06:51;97710;;;5.4;79
68965;BME280;56017;48.680;8.998;2023-02-15T18:09:31;97710;;;5.4;79
68965;BME280;56017;48.680;8.998;2023-02-15T18:12:04;97720;;;5.3;79
68965;BME280;56017;48.680;8.998;2023-02-15T18:14:33;97720;;;5.2;79
68965;BME280;56017;48.680;8.998;2023-02-15T18:16:54;97720;;;5;79
68965;BME280;56017;48.680;8.998;2023-02-15T18:19:34;97720;;;4.7;79
68965;BME280;56017;48.680;8.998;2023-02-15T18:21:55;97720;;;4.5;79.5
68965;BME280;56017;48.680;8.998;2023-02-15T18:24:35;97720;;;4.5;79.5
68965;BME280;56017;48.680;8.998;2023-02-15T18:26:56;97730;;;4.5;79.5
68965;BME280;56017;48.680;8.998;2023-02-15T18:29:36;97730;;;4.4;79.5
68965;BME280;56017;48.680;8.998;2023-02-15T18:31:58;97740;;;4.3;79.5
68965;BME280;56017;48.680;8.998;2023-02-15T18:34:38;97730;;;4.3;79.5
68965;BME280;56017;48.680;8.998;2023-02-15T18:37:00;97740;;;4.4;79.5
68965;BME280;56017;48.680;8.998;2023-02-15T18:39:49;97740;;;4.4;79.5
68965;BME280;56017;48.680;8.998;2023-02-15T18:42:01;97740;;;4.4;79.5
68965;BME280;56017;48.680;8.998;2023-02-15T18:44:40;97740;;;4.3;79
68965;BME280;56017;48.680;8.998;2023-02-15T18:47:02;97740;;;4.1;79
68965;BME280;56017;48.680;8.998;2023-02-15T18:49:41;97740;;;3.8;79
68965;BME280;56017;48.680;8.998;2023-02-15T18:52:08;97730;;;3.7;79.5
68965;BME280;56017;48.680;8.998;2023-02-15T18:54:43;97740;;;3.6;80
68965;BME280;56017;48.680;8.998;2023-02-15T18:57:04;97730;;;3.7;79.5
68965;BME280;56017;48.680;8.998;2023-02-15T18:59:35;97730;;;3.6;79.5
68965;BME280;56017;48.680;8.998;2023-02-15T19:02:10;97730;;;3.5;79.5
68965;BME280;56017;48.680;8.998;2023-02-15T19:04:45;97730;;;3.4;79.5
68965;BME280;56017;48.680;8.998;2023-02-15T19:07:13;97730;;;3.3;79.5
68965;BME280;56017;48.680;8.998;2023-02-15T19:09:48;97720;;;3.2;80
68965;BME280;56017;48.680;8.998;2023-02-15T19:12:09;97720;;;3.3;80
68965;BME280;56017;48.680;8.998;2023-02-15T19:14:48;97720;;;3.3;80
68965;BME280;56017;48.680;8.998;2023-02-15T19:17:12;97720;;;3.4;80
68965;BME280;56017;48.680;8.998;2023-02-15T19:19:50;97720;;;3.4;79.5
68965;BME280;56017;48.680;8.998;2023-02-15T19:22:12;97720;;;3.4;79.5
68965;BME280;56017;48.680;8.998;2023-02-15T19:24:50;97720;;;3.3;79.5
68965;BME280;56017;48.680;8.998;2023-02-15T19:27:17;97720;;;3.2;79.5
68965;BME280;56017;48.680;8.998;2023-02-15T19:29:52;97710;;;3;79.5
68965;BME280;56017;48.680;8.998;2023-02-15T19:34:53;97710;;;3.1;80
68965;BME280;56017;48.680;8.998;2023-02-15T19:37:19;97710;;;3.2;80
68965;BME280;56017;48.680;8.998;2023-02-15T19:39:54;97710;;;3.3;80
68965;BME280;56017;48.680;8.998;2023-02-15T19:42:20;97710;;;3.3;80
68965;BME280;56017;48.680;8.998;2023-02-15T19:44:55;97710;;;3.3;80
68965;BME280;56017;48.680;8.998;2023-02-15T19:49:47;97700;;;3.3;79.5
68965;BME280;56017;48.680;8.998;2023-02-15T19:52:18;97700;;;3.2;79.5
68965;BME280;56017;48.680;8.998;2023-02-15T19:54:58;97700;;;2.9;79.5
68965;BME280;56017;48.680;8.998;2023-02-15T19:57:19;97690;;;2.7;79.5
68965;BME280;56017;48.680;8.998;2023-02-15T19:59:49;97700;;;2.5;80
68965;BME280;56017;48.680;8.998;2023-02-15T20:02:20;97700;;;2.5;80
68965;BME280;56017;48.680;8.998;2023-02-15T20:05:00;97690;;;2.5;80
68965;BME280;56017;48.680;8.998;2023-02-15T20:07:24;97690;;;2.4;80
68965;BME280;56017;48.680;8.998;2023-02-15T20:09:53;97690;;;2.3;80
68965;BME280;56017;48.680;8.998;2023-02-15T20:12:24;97690;;;2.3;80.5
68965;BME280;56017;48.680;8.998;2023-02-15T20:15:07;97690;;;2.5;79.5
68965;BME280;56017;48.680;8.998;2023-02-15T20:17:24;97700;;;2.7;79.5
68965;BME280;56017;48.680;8.998;2023-02-15T20:20:04;97700;;;2.7;79.5
68965;BME280;56017;48.680;8.998;2023-02-15T20:22:26;97700;;;2.6;79.5
68965;BME280;56017;48.680;8.998;2023-02-15T20:25:07;97700;;;2.5;79.5
68965;BME280;56017;48.680;8.998;2023-02-15T20:27:27;97700;;;2.4;80
68965;BME280;56017;48.680;8.998;2023-02-15T20:30:13;97700;;;2.4;80
68965;BME280;56017;48.680;8.998;2023-02-15T20:35:11;97700;;;2.4;80
68965;BME280;56017;48.680;8.998;2023-02-15T20:37:29;97700;;;2.6;79.5
68965;BME280;56017;48.680;8.998;2023-02-15T20:40:13;97700;;;2.6;79
68965;BME280;56017;48.680;8.998;2023-02-15T20:42:30;97700;;;2.5;79
68965;BME280;56017;48.680;8.998;2023-02-15T20:45:14;97700;;;2.3;79.5
68965;BME280;56017;48.680;8.998;2023-02-15T20:47:32;97710;;;2.1;80
68965;BME280;56017;48.680;8.998;2023-02-15T20:50:11;97710;;;2.2;80
68965;BME280;56017;48.680;8.998;2023-02-15T20:52:33;97710;;;2.4;79.5
68965;BME280;56017;48.680;8.998;2023-02-15T20:55:09;97700;;;2.4;80
68965;BME280;56017;48.680;8.998;2023-02-15T20:57:34;97700;;;2.2;79.5
68965;BME280;56017;48.680;8.998;2023-02-15T21:00:17;97700;;;2.1;80
68965;BME280;56017;48.680;8.998;2023-02-15T21:02:35;97690;;;2.1;80
68965;BME280;56017;48.680;8.998;2023-02-15T21:05:16;97690;;;2.2;80
68965;BME280;56017;48.680;8.998;2023-02-15T21:07:37;97700;;;2.2;79.5
68965;BME280;56017;48.680;8.998;2023-02-15T21:10:18;97690;;;2.1;79.5
68965;BME280;56017;48.680;8.998;2023-02-15T21:12:37;97690;;;2;79.5
68965;BME280;56017;48.680;8.998;2023-02-15T21:15:28;97700;;;2;80
68965;BME280;56017;48.680;8.998;2023-02-15T21:17:39;97700;;;2.1;79.5
68965;BME280;56017;48.680;8.998;2023-02-15T21:20:19;97700;;;2.1;79
68965;BME280;56017;48.680;8.998;2023-02-15T21:22:40;97700;;;2;79.5
68965;BME280;56017;48.680;8.998;2023-02-15T21:25:23;97700;;;1.8;80
68965;BME280;56017;48.680;8.998;2023-02-15T21:27:51;97710;;;1.8;80
68965;BME280;56017;48.680;8.998;2023-02-15T21:30:22;97700;;;1.9;80
68965;BME280;56017;48.680;8.998;2023-02-15T21:32:43;97700;;;1.9;80
68965;BME280;56017;48.680;8.998;2023-02-15T21:35:22;97690;;;1.7;79.5
68965;BME280;56017;48.680;8.998;2023-02-15T21:37:45;97690;;;1.6;80
68965;BME280;56017;48.680;8.998;2023-02-15T21:40:26;97690;;;1.4;80
68965;BME280;56017;48.680;8.998;2023-02-15T21:42:45;97690;;;1.4;80.5
68965;BME280;56017;48.680;8.998;2023-02-15T21:45:25;97690;;;1.4;80.5
68965;BME280;56017;48.680;8.998;2023-02-15T21:47:46;97690;;;1.6;80
68965;BME280;56017;48.680;8.998;2023-02-15T21:50:26;97680;;;1.6;80
68965;BME280;56017;48.680;8.998;2023-02-15T21:52:48;97690;;;1.6;79.5
68965;BME280;56017;48.680;8.998;2023-02-15T21:55:27;97680;;;1.5;79.5
68965;BME280;56017;48.680;8.998;2023-02-15T21:57:49;97680;;;1.4;80
68965;BME280;56017;48.680;8.998;2023-02-15T22:00:29;97690;;;1.4;80.5
68965;BME280;56017;48.680;8.998;2023-02-15T22:02:51;97690;;;1.6;80
68965;BME280;56017;48.680;8.998;2023-02-15T22:05:30;97690;;;1.7;79.5
68965;BME280;56017;48.680;8.998;2023-02-15T22:07:52;97690;;;1.7;78.5
68965;BME280;56017;48.680;8.998;2023-02-15T22:10:31;97690;;;1.7;79
68965;BME280;56017;48.680;8.998;2023-02-15T22:12:53;97700;;;1.7;79.5
68965;BME280;56017;48.680;8.998;2023-02-15T22:15:34;97700;;;1.7;79.5
68965;BME280;56017;48.680;8.998;2023-02-15T22:17:54;97700;;;1.6;79
68965;BME280;56017;48.680;8.998;2023-02-15T22:20:34;97710;;;1.4;79.5
68965;BME280;56017;48.680;8.998;2023-02-15T22:22:55;97710;;;1.2;79.5
68965;BME280;56017;48.680;8.998;2023-02-15T22:25:35;97710;;;1.1;80
68965;BME280;56017;48.680;8.998;2023-02-15T22:27:56;97710;;;1;80
68965;BME280;56017;48.680;8.998;2023-02-15T22:30:36;97710;;;1;80
68965;BME280;56017;48.680;8.998;2023-02-15T22:32:58;97710;;;1;80
68965;BME280;56017;48.680;8.998;2023-02-15T22:35:38;97710;;;1;80.5
68965;BME280;56017;48.680;8.998;2023-02-15T22:37:59;97700;;;1;80
68965;BME280;56017;48.680;8.998;2023-02-15T22:40:39;97700;;;1;80
68965;BME280;56017;48.680;8.998;2023-02-15T22:43:01;97700;;;1;80